createdAt,value
2022-11-27T00:01:14.223Z,5.30
2022-11-27T00:03:42.129Z,5.30
2022-11-27T00:06:13.187Z,5.30
2022-11-27T00:08:40.034Z,5.50
2022-11-27T00:11:15.372Z,5.20
2022-11-27T00:13:42.403Z,5.40
2022-11-27T00:16:10.122Z,5.20
2022-11-27T00:18:37.462Z,5.10
2022-11-27T00:21:06.488Z,5.10
2022-11-27T00:23:34.329Z,5.10
2022-11-27T00:26:01.336Z,5.10
2022-11-27T00:28:28.794Z,5.20
2022-11-27T00:31:04.714Z,5.10
2022-11-27T00:33:32.256Z,5.10
2022-11-27T00:36:04.181Z,5.10
2022-11-27T00:38:34.684Z,5.10
2022-11-27T00:41:07.581Z,5.30
2022-11-27T00:43:43.626Z,5.00
2022-11-27T00:46:18.775Z,5.00
2022-11-27T00:48:47.012Z,5.00
2022-11-27T00:51:16.775Z,5.10
2022-11-27T00:53:44.335Z,5.00
2022-11-27T00:56:21.706Z,5.00
2022-11-27T00:58:49.336Z,5.00
2022-11-27T01:01:29.109Z,5.00
2022-11-27T01:03:58.055Z,5.00
2022-11-27T01:06:26.068Z,5.00
2022-11-27T01:08:53.311Z,5.20
2022-11-27T01:11:26.628Z,4.90
2022-11-27T01:13:55.698Z,5.00
2022-11-27T01:16:25.380Z,4.70
2022-11-27T01:18:55.145Z,5.10
2022-11-27T01:21:22.276Z,5.00
2022-11-27T01:23:50.098Z,4.80
2022-11-27T01:26:18.508Z,5.20
2022-11-27T01:28:45.839Z,4.80
2022-11-27T01:31:18.498Z,4.80
2022-11-27T01:33:46.404Z,4.80
2022-11-27T01:36:14.903Z,5.00
2022-11-27T01:38:42.308Z,4.80
2022-11-27T01:41:16.552Z,5.00
2022-11-27T01:43:45.568Z,4.90
2022-11-27T01:46:46.500Z,4.90
2022-11-27T01:49:22.873Z,4.70
2022-11-27T01:52:07.757Z,4.70
2022-11-27T01:54:41.130Z,4.70
2022-11-27T01:57:13.450Z,4.60
2022-11-27T01:59:40.827Z,4.60
2022-11-27T02:02:07.747Z,4.60
2022-11-27T02:04:34.760Z,4.80
2022-11-27T02:07:01.738Z,4.60
2022-11-27T02:09:29.749Z,4.80
2022-11-27T02:12:14.524Z,4.90
2022-11-27T02:15:09.262Z,4.50
2022-11-27T02:17:57.748Z,4.50
2022-11-27T02:20:45.580Z,4.40
2022-11-27T02:23:27.477Z,4.40
2022-11-27T02:26:36.170Z,4.40
2022-11-27T02:29:11.747Z,4.40
2022-11-27T02:31:55.263Z,4.40
2022-11-27T02:34:36.159Z,4.40
2022-11-27T02:37:42.192Z,4.40
2022-11-27T02:40:26.871Z,4.40
2022-11-27T02:43:09.581Z,4.40
2022-11-27T02:45:45.248Z,4.40
2022-11-27T02:48:16.019Z,4.40
2022-11-27T02:50:45.080Z,4.40
2022-11-27T02:53:18.713Z,4.60
2022-11-27T02:55:47.089Z,4.30
2022-11-27T02:58:17.893Z,4.30
2022-11-27T03:00:46.676Z,4.60
2022-11-27T03:03:18.639Z,4.30
2022-11-27T03:05:47.962Z,4.30
2022-11-27T03:08:33.133Z,4.30
2022-11-27T03:11:07.180Z,4.20
2022-11-27T03:13:38.349Z,4.20
2022-11-27T03:16:10.465Z,4.10
2022-11-27T03:19:06.261Z,4.10
2022-11-27T03:21:42.256Z,4.10
2022-11-27T03:24:10.189Z,4.00
2022-11-27T03:26:38.321Z,4.40
2022-11-27T03:29:08.484Z,4.40
2022-11-27T03:31:35.826Z,4.30
2022-11-27T03:34:02.889Z,3.90
2022-11-27T03:36:29.795Z,3.90
2022-11-27T03:38:56.980Z,4.20
2022-11-27T03:41:48.628Z,4.20
2022-11-27T03:44:46.580Z,3.80
2022-11-27T03:47:43.866Z,3.70
2022-11-27T03:50:18.973Z,3.70
2022-11-27T03:53:07.728Z,3.70
2022-11-27T03:55:40.303Z,3.60
2022-11-27T03:58:25.872Z,3.60
2022-11-27T04:00:53.722Z,3.60
2022-11-27T04:03:27.396Z,3.60
2022-11-27T04:05:54.607Z,3.50
2022-11-27T04:08:21.663Z,3.90
2022-11-27T04:10:48.907Z,3.50
2022-11-27T04:13:16.219Z,3.60
2022-11-27T04:15:43.114Z,3.60
2022-11-27T04:18:10.013Z,3.60
2022-11-27T04:20:36.956Z,3.60
2022-11-27T04:23:03.988Z,3.60
2022-11-27T04:25:30.887Z,3.50
2022-11-27T04:27:57.736Z,3.60
2022-11-27T04:30:24.637Z,3.80
2022-11-27T04:32:51.496Z,3.50
2022-11-27T04:35:18.390Z,3.60
2022-11-27T04:37:45.256Z,4.00
2022-11-27T04:40:12.837Z,3.60
2022-11-27T04:42:39.725Z,3.60
2022-11-27T04:45:07.073Z,3.50
2022-11-27T04:47:33.947Z,3.50
2022-11-27T04:50:00.885Z,3.50
2022-11-27T04:52:27.834Z,3.40
2022-11-27T04:54:59.771Z,3.50
2022-11-27T04:57:27.454Z,3.50
2022-11-27T04:59:54.543Z,3.80
2022-11-27T05:02:21.836Z,3.40
2022-11-27T05:04:48.880Z,3.40
2022-11-27T05:07:15.768Z,3.50
2022-11-27T05:09:42.894Z,3.20
2022-11-27T05:12:09.747Z,3.50
2022-11-27T05:14:36.718Z,3.50
2022-11-27T05:17:04.111Z,3.20
2022-11-27T05:19:32.598Z,3.20
2022-11-27T05:21:59.470Z,3.30
2022-11-27T05:24:28.125Z,3.10
2022-11-27T05:26:56.142Z,2.80
2022-11-27T05:29:23.989Z,3.10
2022-11-27T05:31:51.262Z,3.10
2022-11-27T05:34:18.274Z,3.00
2022-11-27T05:36:45.448Z,3.10
2022-11-27T05:39:12.743Z,3.10
2022-11-27T05:41:43.380Z,3.50
2022-11-27T05:44:14.955Z,3.10
2022-11-27T05:46:45.212Z,3.10
2022-11-27T05:49:14.274Z,3.00
2022-11-27T05:51:44.125Z,3.10
2022-11-27T05:54:13.344Z,3.00
2022-11-27T05:56:40.131Z,3.00
2022-11-27T05:59:06.969Z,3.00
2022-11-27T06:01:33.852Z,3.00
2022-11-27T06:04:01.105Z,3.20
2022-11-27T06:06:27.941Z,3.00
2022-11-27T06:08:54.866Z,3.00
2022-11-27T06:11:22.968Z,3.00
2022-11-27T06:13:50.250Z,3.00
2022-11-27T06:16:20.094Z,3.30
2022-11-27T06:18:50.832Z,3.00
2022-11-27T06:21:18.579Z,3.00
2022-11-27T06:23:46.141Z,3.00
2022-11-27T06:26:19.075Z,3.00
2022-11-27T06:28:47.147Z,2.90
2022-11-27T06:31:18.714Z,2.90
2022-11-27T06:33:47.271Z,3.20
2022-11-27T06:36:14.286Z,3.20
2022-11-27T06:38:41.170Z,2.90
2022-11-27T06:41:11.448Z,3.40
2022-11-27T06:43:38.665Z,3.00
2022-11-27T06:46:07.799Z,3.20
2022-11-27T06:48:35.171Z,3.30
2022-11-27T06:51:03.173Z,3.40
2022-11-27T06:53:31.373Z,3.00
2022-11-27T06:55:58.266Z,3.20
2022-11-27T06:58:30.608Z,3.00
2022-11-27T07:01:04.445Z,3.00
2022-11-27T07:03:31.446Z,3.00
2022-11-27T07:06:02.747Z,3.00
2022-11-27T07:08:30.795Z,3.00
2022-11-27T07:11:08.179Z,3.00
2022-11-27T07:13:35.549Z,3.00
2022-11-27T07:16:04.826Z,3.00
2022-11-27T07:18:36.592Z,3.10
2022-11-27T07:21:04.125Z,3.10
2022-11-27T07:23:31.136Z,3.10
2022-11-27T07:25:58.524Z,3.10
2022-11-27T07:28:25.631Z,3.10
2022-11-27T07:30:58.256Z,3.10
2022-11-27T07:33:25.963Z,3.10
2022-11-27T07:36:02.514Z,3.10
2022-11-27T07:38:29.394Z,3.30
2022-11-27T07:41:00.833Z,3.30
2022-11-27T07:43:28.485Z,3.20
2022-11-27T07:45:55.439Z,3.20
2022-11-27T07:48:22.668Z,3.20
2022-11-27T07:50:49.635Z,3.20
2022-11-27T07:53:16.503Z,3.60
2022-11-27T07:55:43.320Z,3.30
2022-11-27T07:58:10.185Z,3.60
2022-11-27T08:00:37.453Z,3.30
2022-11-27T08:03:04.465Z,3.40
2022-11-27T08:05:34.910Z,3.50
2022-11-27T08:08:04.259Z,3.50
2022-11-27T08:10:34.475Z,3.70
2022-11-27T08:13:01.356Z,3.70
2022-11-27T08:15:28.410Z,3.70
2022-11-27T08:17:55.384Z,3.80
2022-11-27T08:20:22.294Z,3.80
2022-11-27T08:22:49.680Z,4.00
2022-11-27T08:25:16.804Z,4.20
2022-11-27T08:27:43.911Z,3.90
2022-11-27T08:30:11.178Z,3.90
2022-11-27T08:32:42.867Z,4.00
2022-11-27T08:35:11.260Z,4.00
2022-11-27T08:37:38.141Z,4.10
2022-11-27T08:40:06.029Z,4.00
2022-11-27T08:42:32.875Z,4.00
2022-11-27T08:45:00.019Z,4.00
2022-11-27T08:47:27.043Z,4.00
2022-11-27T08:49:53.933Z,4.00
2022-11-27T08:52:21.891Z,4.20
2022-11-27T08:54:53.150Z,4.20
2022-11-27T08:57:22.941Z,4.30
2022-11-27T08:59:49.941Z,4.20
2022-11-27T09:02:16.796Z,4.50
2022-11-27T09:04:43.876Z,4.40
2022-11-27T09:07:14.256Z,4.50
2022-11-27T09:09:41.577Z,4.60
2022-11-27T09:12:08.855Z,4.70
2022-11-27T09:14:35.779Z,4.80
2022-11-27T09:17:05.931Z,4.90
2022-11-27T09:19:32.993Z,5.10
2022-11-27T09:21:59.951Z,5.20
2022-11-27T09:24:27.532Z,5.10
2022-11-27T09:26:54.466Z,5.40
2022-11-27T09:29:21.627Z,5.50
2022-11-27T09:31:48.639Z,5.40
2022-11-27T09:34:15.701Z,5.50
2022-11-27T09:36:42.705Z,5.60
2022-11-27T09:39:09.764Z,5.60
2022-11-27T09:41:43.977Z,5.60
2022-11-27T09:44:25.536Z,5.70
2022-11-27T09:46:54.409Z,5.60
2022-11-27T09:49:25.047Z,5.70
2022-11-27T09:52:26.906Z,5.60
2022-11-27T09:55:12.201Z,5.60
2022-11-27T09:57:41.969Z,5.60
2022-11-27T10:00:16.980Z,5.60
2022-11-27T10:02:44.984Z,5.70
2022-11-27T10:05:26.689Z,5.70
2022-11-27T10:08:30.727Z,5.90
2022-11-27T10:11:12.818Z,6.10
2022-11-27T10:14:18.369Z,6.10
2022-11-27T10:16:54.226Z,6.30
2022-11-27T10:19:48.417Z,6.40
2022-11-27T10:22:45.506Z,6.60
2022-11-27T10:25:28.323Z,6.70
2022-11-27T10:28:03.986Z,6.90
2022-11-27T10:30:36.475Z,7.00
2022-11-27T10:33:13.140Z,7.50
2022-11-27T10:35:41.062Z,7.30
2022-11-27T10:38:17.089Z,7.50
2022-11-27T10:40:55.917Z,7.60
2022-11-27T10:43:25.212Z,7.80
2022-11-27T10:46:02.195Z,7.90
2022-11-27T10:48:29.706Z,8.00
2022-11-27T10:50:57.012Z,8.10
2022-11-27T10:53:33.782Z,8.20
2022-11-27T10:56:14.408Z,8.30
2022-11-27T10:58:59.443Z,8.30
2022-11-27T11:01:29.309Z,8.40
2022-11-27T11:04:31.313Z,8.50
2022-11-27T11:06:54.870Z,8.60
2022-11-27T11:09:27.343Z,8.90
2022-11-27T11:11:54.638Z,8.80
2022-11-27T11:14:26.384Z,8.90
2022-11-27T11:16:54.823Z,9.00
2022-11-27T11:19:35.754Z,9.00
2022-11-27T11:22:14.846Z,9.10
2022-11-27T11:24:47.719Z,9.20
2022-11-27T11:27:23.010Z,9.30
2022-11-27T11:29:55.436Z,9.30
2022-11-27T11:32:31.009Z,9.40
2022-11-27T11:35:21.771Z,9.50
2022-11-27T11:37:48.957Z,9.50
2022-11-27T11:40:16.737Z,9.50
2022-11-27T11:43:01.646Z,9.50
2022-11-27T11:45:32.888Z,9.60
2022-11-27T11:48:02.925Z,9.70
2022-11-27T11:50:55.718Z,9.70
2022-11-27T11:53:30.575Z,9.80
2022-11-27T11:56:19.025Z,9.90
2022-11-27T11:59:19.438Z,9.90
2022-11-27T12:02:13.650Z,10.00
2022-11-27T12:04:43.768Z,10.00
2022-11-27T12:07:29.926Z,10.10
2022-11-27T12:10:14.003Z,10.20
2022-11-27T12:13:01.205Z,10.20
2022-11-27T12:15:52.301Z,10.30
2022-11-27T12:18:23.911Z,10.30
2022-11-27T12:21:20.672Z,10.40
2022-11-27T12:23:59.462Z,10.40
2022-11-27T12:26:30.097Z,10.40
2022-11-27T12:29:25.232Z,10.40
2022-11-27T12:32:13.837Z,10.40
2022-11-27T12:35:17.374Z,10.30
2022-11-27T12:38:21.969Z,10.20
2022-11-27T12:41:23.956Z,10.20
2022-11-27T12:43:55.920Z,10.10
2022-11-27T12:46:28.693Z,10.00
2022-11-27T12:49:30.727Z,10.00
2022-11-27T12:52:01.184Z,9.70
2022-11-27T12:54:35.138Z,10.00
2022-11-27T12:57:08.174Z,10.00
2022-11-27T12:59:43.651Z,10.00
2022-11-27T13:02:42.625Z,10.00
2022-11-27T13:05:20.543Z,10.00
2022-11-27T13:07:58.677Z,10.00
2022-11-27T13:10:36.900Z,10.00
2022-11-27T13:13:34.676Z,10.00
2022-11-27T13:16:07.306Z,10.00
2022-11-27T13:19:05.576Z,10.00
2022-11-27T13:21:34.605Z,10.00
2022-11-27T13:24:02.513Z,9.90
2022-11-27T13:26:42.123Z,9.90
2022-11-27T13:29:17.330Z,9.90
2022-11-27T13:31:46.530Z,9.90
2022-11-27T13:34:21.364Z,9.90
2022-11-27T13:36:56.930Z,9.90
2022-11-27T13:39:25.697Z,9.90
2022-11-27T13:42:15.986Z,9.90
2022-11-27T13:44:52.108Z,9.90
2022-11-27T13:47:21.416Z,9.90
2022-11-27T13:50:06.135Z,9.90
2022-11-27T13:52:33.907Z,9.90
2022-11-27T13:55:03.724Z,9.80
2022-11-27T13:57:31.481Z,9.80
2022-11-27T14:00:02.683Z,9.80
2022-11-27T14:02:51.617Z,9.80
2022-11-27T14:05:21.916Z,9.90
2022-11-27T14:07:52.421Z,9.90
2022-11-27T14:10:26.005Z,9.80
2022-11-27T14:13:11.263Z,9.80
2022-11-27T14:15:38.863Z,9.80
2022-11-27T14:18:13.856Z,9.80
2022-11-27T14:20:51.414Z,9.80
2022-11-27T14:23:31.758Z,9.70
2022-11-27T14:26:28.812Z,9.70
2022-11-27T14:28:56.224Z,9.60
2022-11-27T14:31:35.684Z,9.60
2022-11-27T14:34:23.105Z,9.60
2022-11-27T14:36:52.872Z,9.50
2022-11-27T14:39:38.744Z,9.70
2022-11-27T14:42:31.281Z,9.50
2022-11-27T14:45:11.069Z,9.40
2022-11-27T15:12:19.499Z,9.20
2022-11-27T15:15:27.617Z,9.10
2022-11-27T15:18:04.399Z,9.10
2022-11-27T15:20:44.989Z,9.10
2022-11-27T15:23:44.739Z,8.90
2022-11-27T15:26:16.897Z,8.80
2022-11-27T15:28:57.462Z,8.80
2022-11-27T15:31:29.624Z,9.00
2022-11-27T15:33:57.036Z,8.90
2022-11-27T15:36:24.660Z,8.90
2022-11-27T15:38:52.389Z,8.90
2022-11-27T15:41:28.771Z,8.80
2022-11-27T15:43:56.923Z,8.60
2022-11-27T15:46:30.503Z,8.80
2022-11-27T15:48:57.736Z,8.80
2022-11-27T15:51:24.964Z,8.70
2022-11-27T15:53:52.407Z,8.70
2022-11-27T15:59:12.482Z,8.60
2022-11-27T16:01:41.090Z,8.60
2022-11-27T16:04:08.429Z,8.70
2022-11-27T16:06:39.242Z,8.60
2022-11-27T16:09:06.784Z,8.30
2022-11-27T16:14:26.480Z,8.50
2022-11-27T16:16:54.097Z,8.50
2022-11-27T16:19:22.377Z,8.50
2022-11-27T16:24:40.640Z,8.50
2022-11-27T16:27:08.116Z,8.60
2022-11-27T16:29:35.392Z,8.50
2022-11-27T16:32:02.591Z,8.50
2022-11-27T16:34:29.746Z,8.60
2022-11-27T16:36:56.752Z,8.60
2022-11-27T16:39:24.127Z,8.50
2022-11-27T16:41:51.237Z,8.50
2022-11-27T16:44:18.353Z,8.60
2022-11-27T16:46:45.592Z,8.30
2022-11-27T16:49:13.685Z,8.60
2022-11-27T16:51:41.517Z,8.60
2022-11-27T16:54:11.890Z,8.60
2022-11-27T16:56:38.917Z,8.60
2022-11-27T17:02:03.556Z,8.60
2022-11-27T17:04:30.909Z,8.50
2022-11-27T17:06:58.686Z,8.30
2022-11-27T17:09:32.643Z,8.50
2022-11-27T17:12:00.582Z,8.20
2022-11-27T17:20:38.651Z,8.20
2022-11-27T17:29:03.064Z,8.10
2022-11-27T17:49:11.475Z,8.00
2022-11-27T18:00:41.250Z,8.00
2022-11-27T18:17:58.702Z,8.00
2022-11-27T18:20:27.452Z,8.00
2022-11-27T18:31:41.192Z,8.00
2022-11-27T18:34:13.027Z,8.10
2022-11-27T18:42:21.739Z,8.00
2022-11-27T18:44:50.049Z,8.00
2022-11-27T18:47:19.268Z,7.70
2022-11-27T18:50:00.215Z,7.70
2022-11-27T18:52:28.714Z,7.90
2022-11-27T18:54:56.197Z,7.90
2022-11-27T18:57:23.820Z,7.90
2022-11-27T18:59:51.678Z,7.70
2022-11-27T19:02:20.059Z,7.90
2022-11-27T19:04:47.395Z,7.90
2022-11-27T19:07:15.446Z,8.10
2022-11-27T19:09:43.214Z,8.00
2022-11-27T19:12:10.952Z,8.00
2022-11-27T19:14:40.278Z,8.00
2022-11-27T19:17:07.650Z,8.00
2022-11-27T19:22:22.936Z,7.90
2022-11-27T19:24:49.986Z,7.90
2022-11-27T19:27:17.030Z,7.90
2022-11-27T19:29:44.720Z,7.90
2022-11-27T19:32:11.758Z,7.90
2022-11-27T19:34:39.045Z,7.90
2022-11-27T19:37:09.574Z,7.80
2022-11-27T19:39:36.800Z,7.80
2022-11-27T19:42:03.902Z,7.80
2022-11-27T19:44:30.848Z,7.80
2022-11-27T19:46:57.882Z,7.80
2022-11-27T19:49:26.029Z,7.70
2022-11-27T19:51:53.070Z,7.90
2022-11-27T19:54:20.551Z,7.80
2022-11-27T19:56:47.738Z,7.80
2022-11-27T19:59:15.178Z,7.90
2022-11-27T20:01:42.634Z,7.90
2022-11-27T20:04:11.697Z,7.90
2022-11-27T20:06:39.898Z,8.00
2022-11-27T20:09:07.068Z,8.00
2022-11-27T20:11:35.621Z,8.00
2022-11-27T20:14:04.203Z,8.10
2022-11-27T20:16:32.436Z,8.30
2022-11-27T20:19:02.205Z,8.10
2022-11-27T20:21:29.276Z,8.10
2022-11-27T20:23:57.035Z,8.20
2022-11-27T20:26:27.090Z,8.10
2022-11-27T20:28:54.994Z,8.20
2022-11-27T20:31:28.331Z,8.40
2022-11-27T20:34:00.555Z,8.20
2022-11-27T20:36:28.709Z,8.20
2022-11-27T20:38:55.774Z,8.30
2022-11-27T20:41:23.304Z,8.20
2022-11-27T20:43:55.979Z,8.30
2022-11-27T20:46:23.665Z,8.30
2022-11-27T20:48:52.894Z,8.30
2022-11-27T20:51:25.159Z,8.50
2022-11-27T20:53:52.082Z,8.30
2022-11-27T20:56:20.486Z,8.30
2022-11-27T20:58:48.444Z,8.40
2022-11-27T21:01:30.104Z,8.40
2022-11-27T21:03:59.116Z,8.40
2022-11-27T21:06:29.121Z,8.30
2022-11-27T21:08:56.182Z,8.30
2022-11-27T21:11:25.934Z,8.40
2022-11-27T21:13:58.528Z,8.40
2022-11-27T21:16:30.891Z,8.40
2022-11-27T21:19:12.069Z,8.40
2022-11-27T21:21:39.087Z,8.30
2022-11-27T21:24:06.561Z,8.40
2022-11-27T21:26:33.669Z,8.30
2022-11-27T21:29:00.503Z,8.30
2022-11-27T21:31:34.510Z,8.30
2022-11-27T21:34:05.011Z,8.70
2022-11-27T21:36:35.160Z,8.40
2022-11-27T21:39:04.082Z,8.40
2022-11-27T21:41:31.683Z,8.40
2022-11-27T21:44:00.733Z,8.40
2022-11-27T21:46:28.433Z,8.40
2022-11-27T21:48:58.426Z,8.70
2022-11-27T21:51:26.581Z,8.40
2022-11-27T21:53:55.978Z,8.80
2022-11-27T21:56:24.954Z,8.40
2022-11-27T21:58:52.673Z,8.40
2022-11-27T22:01:23.272Z,8.30
2022-11-27T22:03:53.934Z,8.30
2022-11-27T22:06:22.404Z,8.30
2022-11-27T22:08:50.577Z,8.30
2022-11-27T22:11:20.312Z,8.40
2022-11-27T22:13:47.364Z,8.30
2022-11-27T22:16:18.272Z,8.30
2022-11-27T22:18:45.950Z,8.30
2022-11-27T22:21:14.120Z,8.30
2022-11-27T22:23:42.002Z,8.30
2022-11-27T22:26:12.222Z,8.30
2022-11-27T22:28:39.418Z,8.20
2022-11-27T22:31:29.642Z,8.20
2022-11-27T22:33:57.231Z,8.20
2022-11-27T22:36:32.890Z,8.20
2022-11-27T22:39:01.889Z,8.20
2022-11-27T22:41:30.751Z,8.20
2022-11-27T22:44:00.189Z,8.50
2022-11-27T22:46:32.809Z,8.50
2022-11-27T22:49:02.118Z,8.20
2022-11-27T22:51:30.903Z,8.30
2022-11-27T22:53:58.759Z,8.20
2022-11-27T22:56:28.718Z,8.30
2022-11-27T22:59:17.435Z,8.50
2022-11-27T23:01:42.924Z,8.20
2022-11-27T23:04:09.785Z,8.30
2022-11-27T23:06:37.049Z,8.30
2022-11-27T23:09:04.123Z,8.20
2022-11-27T23:11:31.240Z,8.20
2022-11-27T23:13:59.551Z,8.20
2022-11-27T23:16:26.519Z,8.20
2022-11-27T23:18:53.604Z,8.20
2022-11-27T23:21:22.649Z,8.20
2022-11-27T23:23:49.549Z,8.20
2022-11-27T23:26:18.922Z,8.20
2022-11-27T23:28:47.287Z,8.10
2022-11-27T23:31:33.169Z,8.30
2022-11-27T23:34:02.101Z,8.20
2022-11-27T23:36:30.636Z,8.30
2022-11-27T23:39:01.014Z,8.50
2022-11-27T23:41:29.059Z,8.30
2022-11-27T23:43:56.565Z,8.50
2022-11-27T23:46:27.804Z,8.20
2022-11-27T23:48:55.966Z,8.20
2022-11-27T23:51:26.171Z,8.20
2022-11-27T23:53:53.579Z,8.20
2022-11-27T23:56:26.848Z,8.20
2022-11-27T23:58:55.532Z,8.20
